Time;durP1;ratioP1;P1;durP2;ratioP2;P2;SDS_P1;SDS_P2;PMS_P1;PMS_P2;Temp;Humidity;BMP_temperature;BMP_pressure;BME280_temperature;BME280_humidity;BME280_pressure;Samples;Min_cycle;Max_cycle;Signal;HPM_P1;HPM_P2
2022/07/11 00:02:21;;;;;;;;;;;21.10;46.80;;;;;;5046198;28;19970;-67
2022/07/11 00:04:48;;;;;;;;;;;21.10;46.90;;;;;;5047972;28;19929;-67
2022/07/11 00:07:15;;;;;;;;;;;21.10;46.90;;;;;;5063221;28;19967;-67
2022/07/11 00:09:42;;;;;;;;;;;21.10;47.50;;;;;;5061789;28;19920;-67
2022/07/11 00:12:10;;;;;;;;;;;21.10;46.90;;;;;;5060175;28;19999;-67
2022/07/11 00:14:39;;;;;;;;;;;21.10;46.90;;;;;;5056356;28;19921;-67
2022/07/11 00:17:06;;;;;;;;;;;21.10;47.00;;;;;;5045375;28;19924;-67
2022/07/11 00:19:32;;;;;;;;;;;21.10;47.00;;;;;;5048524;28;20272;-67
2022/07/11 00:21:59;;;;;;;;;;;21.10;47.00;;;;;;5048698;28;19927;-67
2022/07/11 00:24:26;;;;;;;;;;;21.10;47.00;;;;;;5063370;28;19979;-67
2022/07/11 00:26:53;;;;;;;;;;;21.10;47.00;;;;;;5068055;28;19928;-67
2022/07/11 00:29:21;;;;;;;;;;;21.10;47.10;;;;;;5065291;28;19994;-67
2022/07/11 00:31:47;;;;;;;;;;;21.10;47.10;;;;;;5064827;28;19987;-67
2022/07/11 00:34:15;;;;;;;;;;;21.10;47.20;;;;;;5047478;28;19978;-67
2022/07/11 00:36:42;;;;;;;;;;;21.10;47.20;;;;;;5042758;28;19925;-67
2022/07/11 00:39:09;;;;;;;;;;;21.10;47.20;;;;;;5062682;28;19943;-67
2022/07/11 00:41:36;;;;;;;;;;;21.10;47.30;;;;;;5059826;28;19925;-67
2022/07/11 00:44:02;;;;;;;;;;;21.10;47.30;;;;;;5062474;28;20036;-67
2022/07/11 00:46:30;;;;;;;;;;;21.10;47.30;;;;;;5042089;28;19951;-67
2022/07/11 00:48:58;;;;;;;;;;;21.10;47.30;;;;;;5037240;28;19932;-67
2022/07/11 00:51:24;;;;;;;;;;;21.10;47.40;;;;;;5064990;28;19974;-67
2022/07/11 00:53:53;;;;;;;;;;;21.10;47.40;;;;;;5063810;28;19964;-67
2022/07/11 00:56:20;;;;;;;;;;;21.10;47.40;;;;;;5047832;28;19950;-67
2022/07/11 00:58:47;;;;;;;;;;;21.10;47.50;;;;;;5059629;28;19983;-67
2022/07/11 01:01:14;;;;;;;;;;;21.10;47.50;;;;;;5062891;28;19940;-67
2022/07/11 01:03:42;;;;;;;;;;;21.10;47.50;;;;;;5065246;28;19970;-67
2022/07/11 01:06:09;;;;;;;;;;;21.10;47.60;;;;;;5060473;28;20367;-67
2022/07/11 01:08:36;;;;;;;;;;;21.10;47.60;;;;;;5057897;28;19929;-67
2022/07/11 01:11:02;;;;;;;;;;;21.10;47.60;;;;;;5059427;28;19956;-67
2022/07/11 01:13:30;;;;;;;;;;;21.10;47.60;;;;;;5063121;28;20014;-67
2022/07/11 01:16:09;;;;;;;;;;;21.10;47.60;;;;;;5062830;28;20269;-67
2022/07/11 01:18:36;;;;;;;;;;;21.10;47.60;;;;;;5044759;28;19975;-67
2022/07/11 01:21:05;;;;;;;;;;;21.10;47.70;;;;;;5048244;28;20362;-67
2022/07/11 01:23:34;;;;;;;;;;;21.10;47.70;;;;;;5044983;28;20373;-67
2022/07/11 01:26:00;;;;;;;;;;;21.10;47.70;;;;;;5063090;28;19928;-67
2022/07/11 01:28:27;;;;;;;;;;;21.10;47.70;;;;;;5046604;28;19921;-67
2022/07/11 01:30:54;;;;;;;;;;;21.10;47.70;;;;;;5064813;28;20043;-67
2022/07/11 01:33:20;;;;;;;;;;;21.10;47.70;;;;;;5043920;28;20024;-67
2022/07/11 01:35:47;;;;;;;;;;;21.10;47.70;;;;;;5059555;28;19962;-67
2022/07/11 01:38:14;;;;;;;;;;;21.10;47.70;;;;;;5046182;28;19943;-67
2022/07/11 01:40:42;;;;;;;;;;;21.10;47.80;;;;;;5059714;28;19933;-67
2022/07/11 01:43:09;;;;;;;;;;;21.00;47.70;;;;;;5062448;28;19925;-66
2022/07/11 01:45:36;;;;;;;;;;;21.00;47.80;;;;;;5059624;28;20366;-68
2022/07/11 01:48:02;;;;;;;;;;;21.00;47.80;;;;;;5048936;28;19943;-68
2022/07/11 01:50:29;;;;;;;;;;;21.00;47.80;;;;;;5044984;28;19921;-67
2022/07/11 01:52:56;;;;;;;;;;;21.00;47.80;;;;;;5059266;28;20370;-67
2022/07/11 01:55:23;;;;;;;;;;;21.00;47.80;;;;;;5043113;28;19932;-67
2022/07/11 01:57:51;;;;;;;;;;;21.00;47.80;;;;;;5062081;28;19925;-67
2022/07/11 02:00:18;;;;;;;;;;;21.00;47.80;;;;;;5062516;28;19932;-66
2022/07/11 02:02:45;;;;;;;;;;;21.00;47.90;;;;;;5044155;28;19950;-66
2022/07/11 02:05:12;;;;;;;;;;;21.00;47.90;;;;;;5065078;28;19927;-66
2022/07/11 02:10:23;;;;;;;;;;;21.00;47.90;;;;;;5056234;28;19917;-66
2022/07/11 02:12:51;;;;;;;;;;;21.00;47.90;;;;;;5060664;28;20290;-66
2022/07/11 02:15:18;;;;;;;;;;;21.00;47.90;;;;;;5060580;28;20239;-67
2022/07/11 02:17:45;;;;;;;;;;;21.00;47.90;;;;;;5063081;28;19932;-67
2022/07/11 02:20:11;;;;;;;;;;;21.00;47.90;;;;;;5061305;28;20083;-67
2022/07/11 02:22:38;;;;;;;;;;;21.00;47.90;;;;;;5045024;28;19932;-67
2022/07/11 02:25:05;;;;;;;;;;;21.00;48.00;;;;;;5048246;28;19969;-67
2022/07/11 02:27:32;;;;;;;;;;;21.00;47.90;;;;;;5059527;28;19928;-67
2022/07/11 02:30:01;;;;;;;;;;;21.00;48.00;;;;;;5059211;28;20324;-66
2022/07/11 02:32:27;;;;;;;;;;;21.00;48.00;;;;;;5043742;28;19929;-67
2022/07/11 02:34:54;;;;;;;;;;;21.00;48.00;;;;;;5061125;28;19924;-66
2022/07/11 02:37:21;;;;;;;;;;;21.00;48.00;;;;;;5057050;28;19924;-66
2022/07/11 02:39:48;;;;;;;;;;;21.00;48.00;;;;;;5060470;28;19971;-66
2022/07/11 02:42:14;;;;;;;;;;;21.00;48.00;;;;;;5058675;28;20003;-66
2022/07/11 02:44:41;;;;;;;;;;;21.00;48.00;;;;;;5057072;28;19972;-66
2022/07/11 02:47:13;;;;;;;;;;;21.00;48.00;;;;;;5061544;28;20219;-66
2022/07/11 02:49:40;;;;;;;;;;;21.00;48.00;;;;;;5061221;28;20015;-66
2022/07/11 02:52:07;;;;;;;;;;;21.00;48.00;;;;;;5048950;28;19959;-67
2022/07/11 02:54:34;;;;;;;;;;;21.00;48.00;;;;;;5040922;28;19933;-66
2022/07/11 02:57:01;;;;;;;;;;;21.00;48.10;;;;;;5042363;28;19920;-66
2022/07/11 02:59:28;;;;;;;;;;;21.00;48.10;;;;;;5045922;28;19921;-66
2022/07/11 03:01:55;;;;;;;;;;;21.10;48.20;;;;;;5060299;28;19921;-66
2022/07/11 03:04:23;;;;;;;;;;;21.00;48.00;;;;;;5059794;28;19968;-67
2022/07/11 03:06:50;;;;;;;;;;;21.00;48.10;;;;;;5060856;28;19924;-66
2022/07/11 03:09:17;;;;;;;;;;;21.00;48.00;;;;;;5054144;28;20377;-67
2022/07/11 03:11:44;;;;;;;;;;;21.00;48.00;;;;;;5045456;28;19920;-66
2022/07/11 03:14:11;;;;;;;;;;;21.00;48.10;;;;;;5060317;28;19970;-66
2022/07/11 03:16:37;;;;;;;;;;;21.00;48.10;;;;;;5059028;28;19920;-67
2022/07/11 03:19:04;;;;;;;;;;;21.00;48.10;;;;;;5059779;28;19937;-66
2022/07/11 03:21:32;;;;;;;;;;;21.00;48.20;;;;;;5038737;28;19960;-66
2022/07/11 03:23:59;;;;;;;;;;;21.00;48.10;;;;;;5063991;28;19971;-67
2022/07/11 03:26:26;;;;;;;;;;;21.00;48.10;;;;;;5046069;28;20381;-66
2022/07/11 03:28:53;;;;;;;;;;;21.00;48.20;;;;;;5058774;28;19920;-66
2022/07/11 03:31:19;;;;;;;;;;;21.00;48.20;;;;;;5058138;28;19921;-66
2022/07/11 03:33:46;;;;;;;;;;;21.00;48.20;;;;;;5060029;28;19925;-66
2022/07/11 03:36:13;;;;;;;;;;;21.00;48.20;;;;;;5042217;28;19974;-66
2022/07/11 03:38:41;;;;;;;;;;;21.00;48.20;;;;;;5061749;28;19974;-66
2022/07/11 03:41:08;;;;;;;;;;;21.00;48.30;;;;;;5041797;28;19928;-66
2022/07/11 03:43:34;;;;;;;;;;;21.00;48.30;;;;;;5058724;28;20324;-67
2022/07/11 03:46:01;;;;;;;;;;;21.00;48.30;;;;;;5055856;28;20443;-66
2022/07/11 03:48:28;;;;;;;;;;;21.00;48.30;;;;;;5057064;28;19963;-66
2022/07/11 03:50:54;;;;;;;;;;;21.00;48.40;;;;;;5059194;28;20358;-66
2022/07/11 03:53:21;;;;;;;;;;;21.00;48.40;;;;;;5063117;28;19955;-66
2022/07/11 03:55:49;;;;;;;;;;;21.00;48.40;;;;;;5060408;28;19954;-66
2022/07/11 03:58:16;;;;;;;;;;;21.00;48.40;;;;;;5060977;28;19920;-66
2022/07/11 04:00:42;;;;;;;;;;;21.00;48.40;;;;;;5061642;28;19927;-66
2022/07/11 04:03:10;;;;;;;;;;;21.00;48.50;;;;;;5057997;28;19975;-66
2022/07/11 04:05:37;;;;;;;;;;;21.00;48.50;;;;;;5057317;28;19921;-66
2022/07/11 04:08:04;;;;;;;;;;;21.00;48.50;;;;;;5060628;28;19939;-66
2022/07/11 04:10:31;;;;;;;;;;;21.00;48.50;;;;;;5058596;28;20374;-66
2022/07/11 04:12:59;;;;;;;;;;;21.00;48.50;;;;;;5061184;28;19970;-66
2022/07/11 04:15:26;;;;;;;;;;;21.00;48.50;;;;;;5045316;28;19925;-66
2022/07/11 04:17:53;;;;;;;;;;;21.00;48.50;;;;;;5066055;28;20361;-66
2022/07/11 04:20:20;;;;;;;;;;;21.00;48.50;;;;;;5032627;28;19966;-66
2022/07/11 04:22:46;;;;;;;;;;;21.00;48.50;;;;;;5063100;28;19931;-66
2022/07/11 04:25:13;;;;;;;;;;;21.00;48.50;;;;;;5044145;28;19925;-66
2022/07/11 04:27:40;;;;;;;;;;;21.00;48.60;;;;;;5046074;28;20069;-66
2022/07/11 04:30:08;;;;;;;;;;;21.00;48.60;;;;;;5062809;28;20066;-67
2022/07/11 04:32:35;;;;;;;;;;;21.00;48.60;;;;;;5042108;28;20278;-67
2022/07/11 04:35:02;;;;;;;;;;;21.00;48.60;;;;;;5045614;28;19927;-66
2022/07/11 04:37:29;;;;;;;;;;;21.00;48.60;;;;;;5061484;28;19986;-67
2022/07/11 04:39:56;;;;;;;;;;;21.00;48.60;;;;;;5063803;28;19928;-67
2022/07/11 04:42:23;;;;;;;;;;;21.00;48.60;;;;;;5060166;28;19955;-66
2022/07/11 04:44:49;;;;;;;;;;;21.00;48.60;;;;;;5062128;28;19929;-66
2022/07/11 04:47:19;;;;;;;;;;;21.00;48.60;;;;;;5042973;28;19952;-66
2022/07/11 04:49:46;;;;;;;;;;;21.00;48.60;;;;;;5062368;28;19925;-66
2022/07/11 04:52:13;;;;;;;;;;;21.00;48.60;;;;;;5066267;28;19921;-66
2022/07/11 04:54:40;;;;;;;;;;;21.00;48.60;;;;;;5061735;28;20417;-67
2022/07/11 04:57:07;;;;;;;;;;;21.00;48.60;;;;;;5045072;28;19979;-66
2022/07/11 04:59:34;;;;;;;;;;;21.00;48.60;;;;;;5047463;28;19920;-66
2022/07/11 05:02:00;;;;;;;;;;;21.00;48.60;;;;;;5061589;28;19924;-66
2022/07/11 05:04:28;;;;;;;;;;;21.00;48.60;;;;;;5050727;28;19959;-66
2022/07/11 05:06:55;;;;;;;;;;;21.00;48.60;;;;;;5041204;28;19986;-67
2022/07/11 05:09:22;;;;;;;;;;;21.00;48.60;;;;;;5061767;28;20340;-66
2022/07/11 05:11:49;;;;;;;;;;;21.00;48.60;;;;;;5060397;28;19924;-66
2022/07/11 05:14:15;;;;;;;;;;;21.00;48.60;;;;;;5063819;28;19921;-66
2022/07/11 05:16:42;;;;;;;;;;;21.00;48.60;;;;;;5058529;28;20122;-66
2022/07/11 05:19:09;;;;;;;;;;;21.00;48.50;;;;;;5060344;28;19964;-66
2022/07/11 05:21:37;;;;;;;;;;;21.00;48.50;;;;;;5045346;28;19927;-66
2022/07/11 05:24:04;;;;;;;;;;;21.00;48.50;;;;;;5044718;28;19920;-66
2022/07/11 05:26:31;;;;;;;;;;;21.00;48.50;;;;;;5062894;28;19935;-66
2022/07/11 05:28:58;;;;;;;;;;;21.00;48.50;;;;;;5062516;28;20011;-67
2022/07/11 05:31:24;;;;;;;;;;;21.00;48.50;;;;;;5058819;28;19920;-66
2022/07/11 05:33:51;;;;;;;;;;;21.00;48.50;;;;;;5044980;28;19920;-66
2022/07/11 05:36:18;;;;;;;;;;;21.00;48.50;;;;;;5063337;28;19924;-67
2022/07/11 05:38:46;;;;;;;;;;;21.00;48.50;;;;;;5063990;28;19942;-66
2022/07/11 05:41:13;;;;;;;;;;;21.00;48.60;;;;;;5063883;28;19942;-66
2022/07/11 05:43:39;;;;;;;;;;;21.00;48.60;;;;;;5064362;28;19963;-66
2022/07/11 05:46:06;;;;;;;;;;;21.00;48.60;;;;;;5045071;28;19928;-66
2022/07/11 05:48:33;;;;;;;;;;;21.00;48.60;;;;;;5064567;28;19943;-66
2022/07/11 05:51:00;;;;;;;;;;;21.00;48.60;;;;;;5066026;28;19948;-66
2022/07/11 05:53:27;;;;;;;;;;;21.00;48.60;;;;;;5058434;28;19967;-66
2022/07/11 05:55:55;;;;;;;;;;;21.00;48.60;;;;;;5058906;28;19944;-66
2022/07/11 05:58:22;;;;;;;;;;;21.00;48.60;;;;;;5044621;28;19924;-66
2022/07/11 06:00:49;;;;;;;;;;;21.00;48.60;;;;;;5057277;28;20441;-66
2022/07/11 06:03:16;;;;;;;;;;;21.00;48.60;;;;;;5062774;28;19928;-67
2022/07/11 06:05:43;;;;;;;;;;;21.00;48.60;;;;;;5057682;28;19924;-66
2022/07/11 06:10:55;;;;;;;;;;;21.00;48.60;;;;;;5042076;28;19917;-67
2022/07/11 06:13:22;;;;;;;;;;;21.00;48.60;;;;;;5040732;28;19934;-66
2022/07/11 06:15:49;;;;;;;;;;;21.00;48.60;;;;;;5045907;28;20249;-66
2022/07/11 06:18:15;;;;;;;;;;;21.00;48.60;;;;;;5061706;28;19929;-67
2022/07/11 06:20:42;;;;;;;;;;;21.00;48.60;;;;;;5062039;28;19977;-67
2022/07/11 06:23:09;;;;;;;;;;;21.00;48.70;;;;;;5058194;28;19932;-66
2022/07/11 06:25:35;;;;;;;;;;;21.00;48.60;;;;;;5045069;28;19986;-67
2022/07/11 06:28:07;;;;;;;;;;;21.00;48.60;;;;;;5065655;28;19935;-67
2022/07/11 06:30:36;;;;;;;;;;;21.00;48.70;;;;;;5062096;28;19967;-66
2022/07/11 06:33:06;;;;;;;;;;;21.00;48.70;;;;;;5064040;28;19978;-66
2022/07/11 06:35:34;;;;;;;;;;;21.00;48.70;;;;;;5062669;28;19929;-67
2022/07/11 06:38:01;;;;;;;;;;;20.90;48.70;;;;;;5044286;28;19924;-67
2022/07/11 06:40:27;;;;;;;;;;;21.00;48.70;;;;;;5057860;28;20336;-67
2022/07/11 06:42:54;;;;;;;;;;;21.00;48.70;;;;;;5043297;28;20365;-66
2022/07/11 06:45:23;;;;;;;;;;;21.00;48.70;;;;;;5056690;28;19924;-67
2022/07/11 06:47:50;;;;;;;;;;;21.00;48.70;;;;;;5051438;28;19929;-66
2022/07/11 06:50:17;;;;;;;;;;;21.00;48.70;;;;;;5042375;28;20019;-66
2022/07/11 06:52:45;;;;;;;;;;;21.00;48.70;;;;;;5039256;28;19925;-67
2022/07/11 06:55:12;;;;;;;;;;;21.00;48.70;;;;;;5064687;28;19924;-67
2022/07/11 06:57:39;;;;;;;;;;;21.00;48.70;;;;;;5058574;28;19924;-66
2022/07/11 07:00:07;;;;;;;;;;;21.00;48.70;;;;;;5056501;28;19927;-66
2022/07/11 07:02:35;;;;;;;;;;;21.00;48.70;;;;;;5047552;28;19925;-66
2022/07/11 07:05:02;;;;;;;;;;;21.00;48.70;;;;;;5047592;28;19928;-67
2022/07/11 07:07:29;;;;;;;;;;;21.00;48.70;;;;;;5047953;28;19932;-63
2022/07/11 07:09:56;;;;;;;;;;;21.00;48.60;;;;;;5041441;28;19936;-67
2022/07/11 07:12:23;;;;;;;;;;;21.00;48.60;;;;;;5057847;28;19921;-64
2022/07/11 07:14:50;;;;;;;;;;;21.00;48.60;;;;;;5058698;28;20350;-64
2022/07/11 07:17:17;;;;;;;;;;;21.00;48.50;;;;;;5060690;28;20280;-63
2022/07/11 07:19:45;;;;;;;;;;;21.00;48.50;;;;;;5036984;28;19964;-63
2022/07/11 07:22:15;;;;;;;;;;;21.00;48.50;;;;;;5034509;28;19928;-63
2022/07/11 07:24:42;;;;;;;;;;;21.00;48.50;;;;;;5062037;28;19978;-62
2022/07/11 07:27:09;;;;;;;;;;;21.00;48.50;;;;;;5054433;28;20011;-64
2022/07/11 07:29:36;;;;;;;;;;;21.00;48.50;;;;;;5054400;28;19943;-64
2022/07/11 07:32:03;;;;;;;;;;;21.00;48.50;;;;;;5051870;28;19968;-64
2022/07/11 07:34:30;;;;;;;;;;;21.00;48.50;;;;;;5041698;28;19992;-65
2022/07/11 07:36:58;;;;;;;;;;;21.10;48.50;;;;;;5059121;28;19939;-64
2022/07/11 07:39:25;;;;;;;;;;;21.10;48.50;;;;;;5056339;28;20277;-65
2022/07/11 07:41:52;;;;;;;;;;;21.10;48.50;;;;;;5058477;28;20317;-64
2022/07/11 07:44:19;;;;;;;;;;;21.10;48.40;;;;;;5059601;28;19921;-65
2022/07/11 07:46:46;;;;;;;;;;;21.10;48.40;;;;;;5032947;28;19933;-65
2022/07/11 07:49:13;;;;;;;;;;;21.10;48.40;;;;;;5058075;28;19928;-65
2022/07/11 07:51:39;;;;;;;;;;;21.10;48.30;;;;;;5061187;28;19921;-63
2022/07/11 07:54:08;;;;;;;;;;;21.10;48.50;;;;;;5044004;28;19928;-64
2022/07/11 07:56:35;;;;;;;;;;;21.10;48.30;;;;;;5060690;28;19954;-63
2022/07/11 07:59:01;;;;;;;;;;;21.10;48.30;;;;;;5067410;28;20001;-64
2022/07/11 08:01:36;;;;;;;;;;;21.10;48.30;;;;;;5064005;28;19929;-64
2022/07/11 08:04:03;;;;;;;;;;;21.20;48.40;;;;;;5062555;28;19916;-65
2022/07/11 08:06:30;;;;;;;;;;;21.20;48.40;;;;;;5047412;28;19936;-65
2022/07/11 08:08:57;;;;;;;;;;;21.20;48.40;;;;;;5064676;28;19961;-64
2022/07/11 08:11:25;;;;;;;;;;;21.20;48.40;;;;;;5061978;28;19936;-64
2022/07/11 08:13:52;;;;;;;;;;;21.20;48.40;;;;;;5061292;28;20365;-64
2022/07/11 08:16:19;;;;;;;;;;;21.20;48.40;;;;;;5061347;28;19924;-65
2022/07/11 08:18:46;;;;;;;;;;;21.20;48.40;;;;;;5064760;28;20267;-63
2022/07/11 08:21:13;;;;;;;;;;;21.20;48.40;;;;;;5064015;28;19939;-60
2022/07/11 08:23:40;;;;;;;;;;;21.20;48.40;;;;;;5046674;28;19921;-59
2022/07/11 08:26:06;;;;;;;;;;;21.20;48.40;;;;;;5063979;28;19927;-60
2022/07/11 08:28:36;;;;;;;;;;;21.30;48.50;;;;;;5042503;28;19932;-64
2022/07/11 08:31:02;;;;;;;;;;;21.20;48.40;;;;;;5066396;28;19920;-64
2022/07/11 08:33:29;;;;;;;;;;;21.30;48.50;;;;;;5060159;28;19927;-65
2022/07/11 08:35:56;;;;;;;;;;;21.30;48.50;;;;;;5046445;28;19921;-64
2022/07/11 08:38:23;;;;;;;;;;;21.30;51.00;;;;;;5063361;28;20372;-64
2022/07/11 08:40:51;;;;;;;;;;;21.30;48.50;;;;;;5062581;28;20365;-64
2022/07/11 08:43:18;;;;;;;;;;;21.30;48.50;;;;;;5039223;28;19944;-64
2022/07/11 08:45:47;;;;;;;;;;;21.30;48.50;;;;;;5042993;28;19924;-66
2022/07/11 08:48:13;;;;;;;;;;;21.30;48.50;;;;;;5044688;28;20266;-64
2022/07/11 08:50:40;;;;;;;;;;;21.30;48.40;;;;;;5046023;28;19966;-63
2022/07/11 08:53:07;;;;;;;;;;;21.30;48.50;;;;;;5059995;28;19925;-65
2022/07/11 08:55:34;;;;;;;;;;;21.30;48.90;;;;;;5045041;28;20051;-64
2022/07/11 08:58:01;;;;;;;;;;;21.30;48.40;;;;;;5048474;28;19920;-65
2022/07/11 09:00:28;;;;;;;;;;;21.30;48.50;;;;;;5064162;28;19920;-66
2022/07/11 09:02:56;;;;;;;;;;;21.40;48.50;;;;;;5070415;28;19994;-65
2022/07/11 09:05:23;;;;;;;;;;;21.40;48.60;;;;;;5066234;28;20015;-64
2022/07/11 09:07:49;;;;;;;;;;;21.40;48.60;;;;;;5048930;28;19931;-64
2022/07/11 09:10:16;;;;;;;;;;;21.40;48.60;;;;;;5068910;28;19924;-64
2022/07/11 09:12:59;;;;;;;;;;;21.40;48.60;;;;;;5047616;28;19966;-64
2022/07/11 09:15:33;;;;;;;;;;;21.40;48.60;;;;;;5070411;28;19950;-66
2022/07/11 09:18:01;;;;;;;;;;;21.40;48.60;;;;;;5045998;28;20327;-63
2022/07/11 09:25:19;;;;;;;;;;;21.40;48.60;;;;;;5059160;28;20327;-60
2022/07/11 09:26:05;;;;;;;;;;;21.40;48.70;;;;;;5049864;28;19923;-63
2022/07/11 09:28:31;;;;;;;;;;;21.40;48.70;;;;;;5065867;28;20283;-63
2022/07/11 09:30:58;;;;;;;;;;;21.40;48.70;;;;;;5065394;28;19940;-64
2022/07/11 09:33:26;;;;;;;;;;;21.40;48.70;;;;;;5047838;28;19920;-65
2022/07/11 09:35:54;;;;;;;;;;;21.40;48.70;;;;;;5039952;28;19936;-65
2022/07/11 09:38:22;;;;;;;;;;;21.40;48.70;;;;;;5041413;28;19924;-65
2022/07/11 09:40:49;;;;;;;;;;;21.50;48.80;;;;;;5041705;28;20445;-63
2022/07/11 09:43:16;;;;;;;;;;;21.50;48.80;;;;;;5044947;28;19932;-63
2022/07/11 09:45:42;;;;;;;;;;;21.50;49.40;;;;;;5046701;28;19920;-63
2022/07/11 09:48:10;;;;;;;;;;;21.50;48.80;;;;;;5061045;28;20308;-64
2022/07/11 09:50:39;;;;;;;;;;;21.50;48.80;;;;;;5059776;28;20358;-66
2022/07/11 09:53:06;;;;;;;;;;;21.50;48.80;;;;;;5044860;28;20412;-64
2022/07/11 09:55:33;;;;;;;;;;;21.50;48.80;;;;;;5045151;28;19921;-66
2022/07/11 09:58:00;;;;;;;;;;;21.50;48.80;;;;;;5067471;28;20320;-64
2022/07/11 10:00:26;;;;;;;;;;;21.50;48.80;;;;;;5049310;28;19931;-65
2022/07/11 10:02:54;;;;;;;;;;;21.50;48.90;;;;;;5041519;28;19935;-64
2022/07/11 10:05:21;;;;;;;;;;;21.50;48.90;;;;;;5043256;28;20427;-64
2022/07/11 10:07:50;;;;;;;;;;;21.50;48.90;;;;;;5063909;28;19921;-66
2022/07/11 10:10:16;;;;;;;;;;;21.50;48.90;;;;;;5059923;28;19933;-65
2022/07/11 10:12:44;;;;;;;;;;;21.50;49.00;;;;;;5061427;28;19920;-65
2022/07/11 10:15:11;;;;;;;;;;;21.50;49.00;;;;;;5065462;28;19925;-66
2022/07/11 10:17:43;;;;;;;;;;;21.50;48.90;;;;;;5058869;28;19982;-67
2022/07/11 10:20:11;;;;;;;;;;;21.50;48.90;;;;;;5064489;28;20153;-64
2022/07/11 10:22:38;;;;;;;;;;;21.50;49.00;;;;;;5065223;28;19973;-63
2022/07/11 10:25:09;;;;;;;;;;;21.50;49.00;;;;;;5062074;28;20032;-66
2022/07/11 10:27:36;;;;;;;;;;;21.60;49.00;;;;;;5039988;28;19955;-57
2022/07/11 10:30:03;;;;;;;;;;;21.60;49.10;;;;;;5066105;28;20022;-58
2022/07/11 10:32:30;;;;;;;;;;;21.60;49.00;;;;;;5047763;28;20320;-57
2022/07/11 10:35:15;;;;;;;;;;;21.60;49.00;;;;;;5044867;28;20362;-57
2022/07/11 10:37:49;;;;;;;;;;;21.60;49.10;;;;;;5062598;28;19924;-59
2022/07/11 10:40:18;;;;;;;;;;;21.60;49.00;;;;;;5066886;28;19920;-57
2022/07/11 10:42:45;;;;;;;;;;;21.60;49.00;;;;;;5040697;28;19920;-58
2022/07/11 10:45:12;;;;;;;;;;;21.60;49.00;;;;;;5042456;28;20277;-58
2022/07/11 10:47:41;;;;;;;;;;;21.60;49.00;;;;;;5048109;28;19920;-58
2022/07/11 10:50:11;;;;;;;;;;;21.60;49.00;;;;;;5036447;28;19924;-60
2022/07/11 10:52:38;;;;;;;;;;;21.60;49.00;;;;;;5039750;28;20348;-57
2022/07/11 10:55:08;;;;;;;;;;;21.60;49.00;;;;;;5038983;28;19939;-56
2022/07/11 10:57:42;;;;;;;;;;;21.60;49.10;;;;;;5044362;28;20132;-60
2022/07/11 11:00:11;;;;;;;;;;;21.60;49.10;;;;;;5062808;28;19950;-59
2022/07/11 11:02:53;;;;;;;;;;;21.60;49.10;;;;;;5066710;28;20040;-59
2022/07/11 11:05:35;;;;;;;;;;;21.60;49.10;;;;;;5052620;28;20409;-59
2022/07/11 11:08:01;;;;;;;;;;;21.60;49.10;;;;;;5054775;28;19980;-61
2022/07/11 11:10:52;;;;;;;;;;;21.60;49.10;;;;;;5059467;28;19933;-61
2022/07/11 11:13:21;;;;;;;;;;;21.60;49.10;;;;;;5040548;28;20200;-61
2022/07/11 11:15:49;;;;;;;;;;;21.60;49.10;;;;;;5058904;28;19932;-61
2022/07/11 11:18:36;;;;;;;;;;;21.60;49.10;;;;;;5056283;28;19920;-60
2022/07/11 11:21:15;;;;;;;;;;;21.60;49.20;;;;;;5039191;28;19925;-60
2022/07/11 11:23:42;;;;;;;;;;;21.60;49.20;;;;;;5048304;28;19977;-61
2022/07/11 11:26:09;;;;;;;;;;;21.70;49.30;;;;;;5048421;28;19921;-59
2022/07/11 11:28:38;;;;;;;;;;;21.60;49.20;;;;;;5040306;28;19933;-61
2022/07/11 11:31:05;;;;;;;;;;;21.70;49.30;;;;;;5066375;28;19924;-61
2022/07/11 11:33:32;;;;;;;;;;;21.70;49.80;;;;;;5048980;28;19924;-65
2022/07/11 11:36:00;;;;;;;;;;;21.60;49.60;;;;;;5044823;28;19933;-64
2022/07/11 11:38:27;;;;;;;;;;;21.70;49.70;;;;;;5042245;28;19943;-66
2022/07/11 11:40:54;;;;;;;;;;;21.70;49.70;;;;;;5045392;28;20003;-61
2022/07/11 11:43:21;;;;;;;;;;;21.70;49.60;;;;;;5046870;28;20002;-64
2022/07/11 11:45:49;;;;;;;;;;;21.70;49.60;;;;;;5043201;28;20016;-62
2022/07/11 11:48:26;;;;;;;;;;;21.70;49.50;;;;;;5042084;28;19933;-64
2022/07/11 11:50:54;;;;;;;;;;;21.70;49.50;;;;;;5059421;28;20017;-63
2022/07/11 11:53:22;;;;;;;;;;;21.70;49.40;;;;;;5044254;28;19943;-64
2022/07/11 11:55:48;;;;;;;;;;;21.70;49.50;;;;;;5050447;28;19933;-65
2022/07/11 11:58:15;;;;;;;;;;;21.70;49.40;;;;;;5065179;28;19925;-64
2022/07/11 12:00:42;;;;;;;;;;;21.70;49.50;;;;;;5045900;28;19928;-64
2022/07/11 12:03:10;;;;;;;;;;;21.70;49.50;;;;;;5051809;28;19925;-64
2022/07/11 12:05:37;;;;;;;;;;;21.70;49.40;;;;;;5043009;28;20006;-65
2022/07/11 12:08:04;;;;;;;;;;;21.70;49.40;;;;;;5048879;28;20011;-65
2022/07/11 12:10:31;;;;;;;;;;;21.70;49.40;;;;;;5042660;28;20023;-64
2022/07/11 12:12:58;;;;;;;;;;;21.70;49.30;;;;;;5059088;28;20336;-62
2022/07/11 12:15:26;;;;;;;;;;;21.80;50.00;;;;;;5049699;28;19932;-65
2022/07/11 12:17:54;;;;;;;;;;;21.70;49.30;;;;;;5059265;28;19963;-64
2022/07/11 12:20:42;;;;;;;;;;;21.80;49.30;;;;;;5059588;28;20016;-62
2022/07/11 12:23:11;;;;;;;;;;;21.80;49.30;;;;;;5062203;28;19959;-66
2022/07/11 12:25:38;;;;;;;;;;;21.80;49.30;;;;;;5045169;28;19966;-64
2022/07/11 12:28:07;;;;;;;;;;;21.80;49.30;;;;;;5058484;28;19947;-64
2022/07/11 12:30:34;;;;;;;;;;;21.80;49.30;;;;;;5060145;28;19928;-65
2022/07/11 12:33:07;;;;;;;;;;;21.80;49.30;;;;;;5058446;28;20000;-64
2022/07/11 12:35:35;;;;;;;;;;;21.80;49.30;;;;;;5061130;28;19951;-66
2022/07/11 12:38:01;;;;;;;;;;;21.80;49.30;;;;;;5042367;28;19931;-68
2022/07/11 12:40:29;;;;;;;;;;;21.80;49.30;;;;;;5045186;28;19963;-65
2022/07/11 12:42:56;;;;;;;;;;;21.80;49.30;;;;;;5046087;28;19929;-64
2022/07/11 12:45:22;;;;;;;;;;;21.80;49.30;;;;;;5064522;28;20354;-64
2022/07/11 12:47:49;;;;;;;;;;;21.80;49.30;;;;;;5056783;28;19982;-59
2022/07/11 12:50:16;;;;;;;;;;;21.80;49.30;;;;;;5057964;28;20035;-60
2022/07/11 12:52:45;;;;;;;;;;;21.80;49.30;;;;;;5046475;28;19921;-61
2022/07/11 12:55:12;;;;;;;;;;;21.80;49.30;;;;;;5065291;28;19978;-61
2022/07/11 12:57:40;;;;;;;;;;;21.80;49.30;;;;;;5067505;28;19925;-66
2022/07/11 13:00:16;;;;;;;;;;;21.80;49.20;;;;;;5043822;28;20011;-65
2022/07/11 13:02:48;;;;;;;;;;;21.80;49.30;;;;;;5056146;28;19950;-65
2022/07/11 13:05:15;;;;;;;;;;;21.80;49.20;;;;;;5056694;28;19932;-67
2022/07/11 13:10:49;;;;;;;;;;;21.80;49.10;;;;;;5046366;28;19923;-64
2022/07/11 13:13:15;;;;;;;;;;;21.90;49.10;;;;;;5062459;28;19925;-65
2022/07/11 13:15:42;;;;;;;;;;;21.90;49.10;;;;;;5063569;28;19924;-65
2022/07/11 13:18:09;;;;;;;;;;;21.80;49.10;;;;;;5043463;28;19970;-65
2022/07/11 13:20:37;;;;;;;;;;;21.90;49.10;;;;;;5063411;28;20019;-64
2022/07/11 13:23:04;;;;;;;;;;;21.90;49.10;;;;;;5034362;28;19964;-65
2022/07/11 13:25:31;;;;;;;;;;;21.90;49.10;;;;;;5041704;28;19921;-67
2022/07/11 13:27:58;;;;;;;;;;;21.90;49.00;;;;;;5063520;28;19990;-65
2022/07/11 13:30:29;;;;;;;;;;;21.90;49.00;;;;;;5064452;28;20421;-65
2022/07/11 13:32:56;;;;;;;;;;;21.90;48.90;;;;;;5048021;28;20389;-65
2022/07/11 13:35:23;;;;;;;;;;;21.90;48.90;;;;;;5039932;28;19986;-64
2022/07/11 13:37:52;;;;;;;;;;;21.90;48.90;;;;;;5057542;28;19947;-66
2022/07/11 13:40:19;;;;;;;;;;;21.90;49.30;;;;;;5065698;28;19979;-65
2022/07/11 13:42:46;;;;;;;;;;;21.90;49.10;;;;;;5062695;28;19966;-66
2022/07/11 13:45:13;;;;;;;;;;;21.90;48.90;;;;;;5040046;28;19996;-67
2022/07/11 13:47:41;;;;;;;;;;;21.90;48.90;;;;;;5058325;28;19928;-66
2022/07/11 13:50:09;;;;;;;;;;;21.90;48.80;;;;;;5060017;28;19927;-67
2022/07/11 13:52:35;;;;;;;;;;;21.90;48.80;;;;;;5057424;28;19921;-65
2022/07/11 13:55:02;;;;;;;;;;;21.90;48.70;;;;;;5061685;28;19925;-66
2022/07/11 13:57:29;;;;;;;;;;;21.90;48.80;;;;;;5046066;28;19924;-65
2022/07/11 13:59:57;;;;;;;;;;;21.90;48.80;;;;;;5064637;28;20346;-66
2022/07/11 14:02:24;;;;;;;;;;;21.90;48.80;;;;;;5063025;28;19924;-65
2022/07/11 14:04:52;;;;;;;;;;;22.00;48.90;;;;;;5067634;28;19989;-60
2022/07/11 14:07:19;;;;;;;;;;;22.00;48.90;;;;;;5068698;28;20231;-67
2022/07/11 14:09:46;;;;;;;;;;;22.00;48.90;;;;;;5067369;28;19921;-65
2022/07/11 14:12:13;;;;;;;;;;;21.90;48.80;;;;;;5047377;28;19921;-65
2022/07/11 14:14:40;;;;;;;;;;;22.00;48.90;;;;;;5051112;28;19932;-65
2022/07/11 14:17:06;;;;;;;;;;;22.00;48.90;;;;;;5064439;28;20374;-65
2022/07/11 14:19:37;;;;;;;;;;;22.00;48.90;;;;;;5057819;28;19936;-65
2022/07/11 14:22:06;;;;;;;;;;;22.00;48.90;;;;;;5058870;28;19982;-66
2022/07/11 14:24:33;;;;;;;;;;;22.00;48.90;;;;;;5046979;28;20456;-65
2022/07/11 14:27:00;;;;;;;;;;;22.00;48.90;;;;;;5045905;28;19932;-59
2022/07/11 14:29:27;;;;;;;;;;;22.00;48.90;;;;;;5047347;28;19927;-65
2022/07/11 14:31:54;;;;;;;;;;;22.00;48.90;;;;;;5061547;28;20358;-66